createdAt,value
2019-03-11T00:00:39.500Z,95.90
2019-03-11T00:05:42.883Z,95.30
2019-03-11T00:10:46.280Z,95.70
2019-03-11T00:15:49.683Z,96.10
2019-03-11T00:20:53.076Z,96.40
2019-03-11T00:25:56.461Z,95.90
2019-03-11T00:30:59.844Z,95.90
2019-03-11T00:36:03.224Z,96.80
2019-03-11T00:41:06.603Z,96.90
2019-03-11T00:46:09.979Z,97.20
2019-03-11T00:51:13.365Z,97.00
2019-03-11T00:56:16.739Z,97.50
2019-03-11T01:01:20.187Z,97.20
2019-03-11T01:06:23.668Z,97.80
2019-03-11T01:11:27.139Z,97.70
2019-03-11T01:16:30.527Z,97.90
2019-03-11T01:21:33.916Z,98.00
2019-03-11T01:26:37.340Z,98.60
2019-03-11T01:31:40.735Z,98.90
2019-03-11T01:36:44.120Z,99.20
2019-03-11T01:41:47.508Z,99.50
2019-03-11T01:46:50.883Z,99.80
2019-03-11T01:51:54.263Z,99.80
2019-03-11T01:56:57.652Z,99.90
2019-03-11T02:02:01.043Z,99.90
2019-03-11T02:07:04.435Z,99.90
2019-03-11T02:12:07.820Z,99.90
2019-03-11T02:17:11.211Z,99.90
2019-03-11T02:22:14.595Z,99.90
2019-03-11T02:27:17.980Z,99.90
2019-03-11T02:32:21.402Z,99.90
2019-03-11T02:37:24.777Z,99.90
2019-03-11T02:42:28.144Z,99.90
2019-03-11T02:47:31.525Z,99.90
2019-03-11T02:52:34.908Z,99.90
2019-03-11T02:57:38.305Z,99.90
2019-03-11T03:02:43.326Z,99.90
2019-03-11T03:07:46.704Z,99.90
2019-03-11T03:12:50.153Z,99.90
2019-03-11T03:17:53.562Z,99.90
2019-03-11T03:22:56.977Z,99.90
2019-03-11T03:28:00.551Z,99.90
2019-03-11T03:33:04.076Z,99.90
2019-03-11T03:38:07.479Z,99.90
2019-03-11T03:43:10.871Z,99.90
2019-03-11T03:48:14.312Z,99.90
2019-03-11T03:53:17.704Z,99.90
2019-03-11T03:58:21.100Z,99.90
2019-03-11T04:03:24.473Z,99.90
2019-03-11T04:08:27.849Z,99.90
2019-03-11T04:13:31.241Z,99.90
2019-03-11T04:18:51.363Z,99.90
2019-03-11T04:23:54.740Z,99.90
2019-03-11T04:28:58.127Z,99.90
2019-03-11T04:34:01.515Z,99.80
2019-03-11T04:39:06.237Z,99.40
2019-03-11T04:44:09.642Z,99.30
2019-03-11T04:49:13.032Z,99.10
2019-03-11T04:54:16.415Z,99.10
2019-03-11T04:59:19.807Z,98.70
2019-03-11T05:04:23.183Z,98.90
2019-03-11T05:09:26.571Z,98.70
2019-03-11T05:14:29.964Z,98.30
2019-03-11T05:19:33.423Z,98.40
2019-03-11T05:24:36.804Z,98.30
2019-03-11T05:29:40.182Z,98.30
2019-03-11T05:34:43.582Z,98.30
2019-03-11T05:39:46.959Z,98.60
2019-03-11T05:44:50.351Z,98.60
2019-03-11T05:49:53.736Z,97.90
2019-03-11T05:54:58.157Z,98.40
2019-03-11T06:00:01.555Z,98.80
2019-03-11T06:05:05.685Z,99.00
2019-03-11T06:10:11.405Z,99.30
2019-03-11T06:15:15.366Z,99.60
2019-03-11T06:20:36.255Z,99.50
2019-03-11T06:25:39.670Z,99.60
2019-03-11T06:30:43.046Z,99.70
2019-03-11T06:35:46.419Z,99.40
2019-03-11T06:40:49.808Z,99.60
2019-03-11T06:45:53.195Z,99.90
2019-03-11T06:50:56.580Z,99.90
2019-03-11T06:55:59.971Z,99.90
2019-03-11T07:01:03.365Z,99.90
2019-03-11T07:06:06.735Z,99.90
2019-03-11T07:11:10.128Z,99.90
2019-03-11T07:16:13.516Z,99.90
2019-03-11T07:21:16.903Z,99.90
2019-03-11T07:26:20.288Z,99.90
2019-03-11T07:31:23.672Z,99.90
2019-03-11T07:36:27.076Z,99.90
2019-03-11T07:41:30.424Z,99.90
2019-03-11T07:46:33.814Z,99.90
2019-03-11T07:51:37.192Z,99.90
2019-03-11T07:56:40.590Z,99.90
2019-03-11T08:01:43.964Z,99.90
2019-03-11T08:06:47.351Z,99.90
2019-03-11T08:11:50.731Z,99.90
2019-03-11T08:16:54.119Z,99.90
2019-03-11T08:21:57.499Z,99.90
2019-03-11T08:27:00.884Z,99.90
2019-03-11T08:32:04.269Z,99.90
2019-03-11T08:37:07.643Z,99.90
2019-03-11T08:42:11.019Z,99.90
2019-03-11T08:47:14.403Z,99.90
2019-03-11T08:52:17.807Z,99.90
2019-03-11T08:57:21.187Z,99.90
2019-03-11T09:02:24.568Z,99.90
2019-03-11T09:07:27.960Z,99.90
2019-03-11T09:12:31.343Z,99.90
2019-03-11T09:17:34.817Z,99.90
2019-03-11T09:22:38.215Z,99.90
2019-03-11T09:27:41.685Z,99.90
2019-03-11T09:32:45.143Z,99.90
2019-03-11T09:37:48.538Z,99.90
2019-03-11T09:42:51.908Z,99.90
2019-03-11T09:47:55.284Z,99.90
2019-03-11T09:52:58.678Z,99.90
2019-03-11T09:58:02.065Z,99.90
2019-03-11T10:03:05.516Z,99.90
2019-03-11T10:08:10.776Z,99.90
2019-03-11T10:13:14.019Z,99.90
2019-03-11T10:18:17.410Z,99.90
2019-03-11T10:23:28.415Z,99.90
2019-03-11T10:28:25.908Z,99.90
2019-03-11T10:33:29.297Z,99.90
2019-03-11T10:38:32.758Z,99.90
2019-03-11T10:43:36.152Z,99.90
2019-03-11T10:48:39.548Z,99.90
2019-03-11T10:53:42.924Z,99.90
2019-03-11T10:58:46.345Z,99.90
2019-03-11T11:03:49.723Z,99.90
2019-03-11T11:08:53.108Z,99.90
2019-03-11T11:13:56.491Z,99.90
2019-03-11T11:18:59.871Z,99.90
2019-03-11T11:24:03.244Z,99.90
2019-03-11T11:29:06.624Z,99.90
2019-03-11T11:34:10.009Z,99.90
2019-03-11T11:39:13.396Z,99.90
2019-03-11T11:44:16.783Z,99.90
2019-03-11T11:49:20.157Z,99.90
2019-03-11T11:54:23.580Z,99.90
2019-03-11T11:59:26.942Z,99.90
2019-03-11T12:04:30.333Z,99.90
2019-03-11T12:09:33.706Z,99.90
2019-03-11T12:14:37.109Z,99.90
2019-03-11T12:19:40.483Z,99.90
2019-03-11T12:24:43.868Z,99.90
2019-03-11T12:29:47.263Z,99.90
2019-03-11T12:34:50.663Z,99.90
2019-03-11T12:39:54.044Z,99.90
2019-03-11T12:44:57.427Z,99.90
2019-03-11T12:50:00.809Z,99.90
2019-03-11T12:55:04.830Z,99.90
2019-03-11T13:00:21.097Z,99.90
2019-03-11T13:05:24.497Z,99.90
2019-03-11T13:10:29.325Z,99.90
2019-03-11T13:15:32.722Z,99.90
2019-03-11T13:20:40.122Z,99.90
2019-03-11T13:25:43.507Z,99.90
2019-03-11T13:30:46.907Z,99.90
2019-03-11T13:35:50.273Z,99.90
2019-03-11T13:40:53.727Z,99.90
2019-03-11T13:45:57.189Z,99.90
2019-03-11T13:51:00.559Z,99.90
2019-03-11T13:56:04.030Z,99.90
2019-03-11T14:01:07.475Z,99.90
2019-03-11T14:06:10.922Z,97.60
2019-03-11T14:11:14.324Z,97.80
2019-03-11T14:16:17.708Z,98.00
2019-03-11T14:21:25.733Z,98.30
2019-03-11T14:26:26.225Z,98.30
2019-03-11T14:31:29.603Z,98.80
2019-03-11T14:36:33.085Z,99.00
2019-03-11T14:41:36.484Z,99.10
2019-03-11T14:46:39.868Z,99.70
2019-03-11T14:51:43.257Z,99.90
2019-03-11T14:56:46.639Z,99.90
2019-03-11T15:01:50.023Z,99.90
2019-03-11T15:06:53.403Z,99.90
2019-03-11T15:11:56.783Z,99.90
2019-03-11T15:17:00.180Z,99.80
2019-03-11T15:22:03.565Z,99.70
2019-03-11T15:27:06.951Z,99.90
2019-03-11T15:32:10.339Z,99.90
2019-03-11T15:37:13.803Z,99.90
2019-03-11T15:42:17.191Z,99.90
2019-03-11T15:47:20.581Z,99.90
2019-03-11T15:52:23.985Z,99.90
2019-03-11T15:57:27.369Z,99.90
2019-03-11T16:02:30.774Z,99.90
2019-03-11T16:07:34.146Z,99.90
2019-03-11T16:12:37.541Z,99.90
2019-03-11T16:17:41.059Z,99.90
2019-03-11T16:22:44.453Z,99.90
2019-03-11T16:27:48.003Z,99.90
2019-03-11T16:32:59.491Z,99.90
2019-03-11T16:37:56.548Z,99.90
2019-03-11T16:42:59.950Z,99.90
2019-03-11T16:48:03.331Z,99.90
2019-03-11T16:53:06.711Z,99.90
2019-03-11T16:58:10.104Z,99.90
2019-03-11T17:03:13.497Z,99.90
2019-03-11T17:08:16.882Z,99.90
2019-03-11T17:13:20.257Z,99.90
2019-03-11T17:18:23.655Z,99.90
2019-03-11T17:23:27.103Z,99.90
2019-03-11T17:28:30.499Z,99.90
2019-03-11T17:33:33.863Z,99.90
2019-03-11T17:38:37.275Z,99.90
2019-03-11T17:43:40.728Z,99.90
2019-03-11T17:48:44.235Z,99.90
2019-03-11T17:53:47.621Z,99.90
2019-03-11T17:58:51.045Z,99.90
2019-03-11T18:03:54.418Z,99.90
2019-03-11T18:08:57.878Z,99.90
2019-03-11T18:14:01.264Z,99.90
2019-03-11T18:19:04.723Z,99.90
2019-03-11T18:24:08.109Z,99.90
2019-03-11T18:29:11.556Z,99.90
2019-03-11T18:34:14.946Z,99.90
2019-03-11T18:39:19.391Z,99.90
2019-03-11T18:44:22.901Z,99.90
2019-03-11T18:49:26.324Z,99.90
2019-03-11T18:54:29.781Z,99.90
2019-03-11T18:59:33.155Z,99.90
2019-03-11T19:04:36.574Z,99.90
2019-03-11T19:09:40.012Z,99.90
2019-03-11T19:14:43.459Z,99.90
2019-03-11T19:19:46.936Z,99.90
2019-03-11T19:24:50.514Z,99.90
2019-03-11T19:29:53.918Z,99.90
2019-03-11T19:34:57.267Z,99.90
2019-03-11T19:40:00.675Z,99.90
2019-03-11T19:45:06.093Z,99.90
2019-03-11T19:50:16.369Z,99.90
2019-03-11T19:55:19.927Z,99.90
2019-03-11T20:00:24.471Z,99.90
2019-03-11T20:05:32.157Z,99.90
2019-03-11T20:10:35.764Z,99.90
2019-03-11T20:15:39.293Z,99.90
2019-03-11T20:20:42.724Z,99.90
2019-03-11T20:25:46.304Z,99.90
2019-03-11T20:30:49.712Z,99.90
2019-03-11T20:35:53.151Z,99.90
2019-03-11T20:40:56.653Z,99.90
2019-03-11T20:46:00.051Z,99.90
2019-03-11T20:51:03.448Z,99.90
2019-03-11T20:56:06.892Z,99.90
2019-03-11T21:01:10.276Z,99.90
2019-03-11T21:06:14.639Z,99.90
2019-03-11T21:11:18.052Z,99.90
2019-03-11T21:16:21.462Z,99.90
2019-03-11T21:21:24.854Z,99.90
2019-03-11T21:26:28.397Z,99.90
2019-03-11T21:31:31.857Z,99.90
2019-03-11T21:36:35.286Z,99.90
2019-03-11T21:41:38.789Z,99.90
2019-03-11T21:46:42.269Z,99.90
2019-03-11T21:51:45.685Z,99.90
2019-03-11T21:56:49.088Z,99.90
2019-03-11T22:01:52.520Z,99.90
2019-03-11T22:06:55.895Z,99.90
2019-03-11T22:11:59.281Z,99.90
2019-03-11T22:17:02.659Z,99.90
2019-03-11T22:22:06.051Z,99.90
2019-03-11T22:27:09.439Z,99.90
2019-03-11T22:32:12.828Z,99.90
2019-03-11T22:37:16.222Z,99.90
2019-03-11T22:42:19.608Z,99.90
2019-03-11T22:47:23.000Z,99.90
2019-03-11T22:52:26.400Z,99.90
2019-03-11T22:57:30.058Z,99.90
2019-03-11T23:02:39.956Z,99.90
2019-03-11T23:07:38.553Z,99.90
2019-03-11T23:12:41.944Z,99.90
2019-03-11T23:17:45.335Z,99.90
2019-03-11T23:22:48.715Z,99.90
2019-03-11T23:27:52.091Z,99.90
2019-03-11T23:32:55.478Z,99.90
2019-03-11T23:37:58.868Z,99.90
2019-03-11T23:43:02.256Z,99.90
2019-03-11T23:48:05.645Z,99.90
2019-03-11T23:53:09.045Z,99.90
2019-03-11T23:58:12.431Z,99.90
